Time;durP1;ratioP1;P1;durP2;ratioP2;P2;SDS_P1;SDS_P2;PMS_P1;PMS_P2;Temp;Humidity;BMP_temperature;BMP_pressure;BME280_temperature;BME280_humidity;BME280_pressure;Samples;Min_cycle;Max_cycle;Signal;HPM_P1;HPM_P2
2021/01/21 00:02:04;;;;;;;11.93;5.97;;;;;;;;;;5022319;28;20084;-43
2021/01/21 00:04:29;;;;;;;8.93;4.57;;;;;;;;;;5017567;28;20029;-43
2021/01/21 00:06:54;;;;;;;12.30;5.90;;;;;;;;;;5021163;28;20033;-40
2021/01/21 00:09:20;;;;;;;11.00;5.70;;;;;;;;;;5020412;28;20041;-40
2021/01/21 00:11:45;;;;;;;23.88;6.38;;;;;;;;;;5024161;28;20156;-41
2021/01/21 00:14:11;;;;;;;7.97;6.88;;;;;;;;;;5028949;28;20033;-46
2021/01/21 00:16:36;;;;;;;16.77;6.75;;;;;;;;;;5032332;28;20093;-42
2021/01/21 00:19:01;;;;;;;7.03;4.28;;;;;;;;;;5027815;28;20033;-41
2021/01/21 00:21:27;;;;;;;12.32;5.43;;;;;;;;;;5029634;28;20032;-43
2021/01/21 00:23:52;;;;;;;8.48;6.55;;;;;;;;;;5034303;28;20029;-41
2021/01/21 00:26:17;;;;;;;10.48;5.03;;;;;;;;;;5034158;28;20479;-41
2021/01/21 00:28:42;;;;;;;9.85;5.72;;;;;;;;;;5037215;28;20053;-40
2021/01/21 00:31:08;;;;;;;7.07;5.25;;;;;;;;;;5034329;28;20100;-40
2021/01/21 00:33:33;;;;;;;8.95;5.13;;;;;;;;;;5032879;28;20083;-45
2021/01/21 00:35:59;;;;;;;7.15;4.75;;;;;;;;;;5035186;28;20063;-40
2021/01/21 00:38:24;;;;;;;10.25;4.57;;;;;;;;;;5033538;28;20025;-42
2021/01/21 00:40:49;;;;;;;8.98;5.05;;;;;;;;;;5036336;28;20086;-42
2021/01/21 00:43:14;;;;;;;4.22;3.58;;;;;;;;;;5032355;28;20036;-43
2021/01/21 00:45:40;;;;;;;9.35;5.97;;;;;;;;;;5036013;28;20122;-41
2021/01/21 00:48:05;;;;;;;7.78;4.65;;;;;;;;;;5030936;28;20029;-40
2021/01/21 00:50:30;;;;;;;7.60;4.13;;;;;;;;;;5034344;28;20040;-43
2021/01/21 00:52:56;;;;;;;7.55;4.68;;;;;;;;;;5031958;28;20028;-43
2021/01/21 00:55:23;;;;;;;9.73;4.90;;;;;;;;;;5032234;28;20537;-40
2021/01/21 00:57:48;;;;;;;8.48;5.82;;;;;;;;;;5034653;28;20477;-46
2021/01/21 01:00:14;;;;;;;7.35;3.75;;;;;;;;;;5029138;28;20014;-41
2021/01/21 01:02:39;;;;;;;6.47;4.13;;;;;;;;;;5020495;28;20144;-41
2021/01/21 01:05:13;;;;;;;7.60;4.53;;;;;;;;;;5023818;28;20033;-42
2021/01/21 01:07:38;;;;;;;9.55;4.90;;;;;;;;;;5018128;28;20028;-40
2021/01/21 01:10:04;;;;;;;5.20;4.70;;;;;;;;;;5021829;28;20013;-42
2021/01/21 01:12:29;;;;;;;5.80;4.40;;;;;;;;;;5029911;28;20807;-41
2021/01/21 01:14:54;;;;;;;8.95;4.30;;;;;;;;;;5030010;28;20459;-42
2021/01/21 01:17:23;;;;;;;5.43;3.83;;;;;;;;;;5030019;28;20121;-41
2021/01/21 01:19:48;;;;;;;7.35;3.92;;;;;;;;;;5030316;28;20083;-43
2021/01/21 01:22:15;;;;;;;7.18;3.92;;;;;;;;;;5029127;28;20059;-41
2021/01/21 01:24:40;;;;;;;7.13;5.43;;;;;;;;;;5029478;28;20028;-44
2021/01/21 01:27:07;;;;;;;11.05;7.97;;;;;;;;;;5029849;28;20030;-40
2021/01/21 01:29:33;;;;;;;7.95;6.25;;;;;;;;;;5027453;28;20414;-43
2021/01/21 01:32:01;;;;;;;8.20;4.95;;;;;;;;;;5028666;28;20021;-39
2021/01/21 01:34:27;;;;;;;7.80;5.15;;;;;;;;;;5025681;28;20038;-41
2021/01/21 01:36:52;;;;;;;12.50;5.22;;;;;;;;;;5019531;28;20029;-41
2021/01/21 01:39:21;;;;;;;9.15;5.85;;;;;;;;;;5024349;28;20082;-40
2021/01/21 01:41:46;;;;;;;4.32;3.38;;;;;;;;;;5014994;28;20661;-43
2021/01/21 01:44:12;;;;;;;8.77;5.00;;;;;;;;;;5017787;28;20050;-40
2021/01/21 01:46:37;;;;;;;14.05;7.78;;;;;;;;;;5024305;28;20033;-40
2021/01/21 01:49:02;;;;;;;7.05;5.45;;;;;;;;;;5017035;28;20026;-41
2021/01/21 01:51:29;;;;;;;7.93;5.75;;;;;;;;;;5023930;28;20032;-42
2021/01/21 01:54:00;;;;;;;4.95;3.95;;;;;;;;;;5017746;28;20507;-39
2021/01/21 01:56:25;;;;;;;;;;;;;;;;;;5018921;28;20049;-41
2021/01/21 01:58:51;;;;;;;7.32;5.18;;;;;;;;;;5023756;28;19908;-42
2021/01/21 02:01:22;;;;;;;10.50;5.53;;;;;;;;;;5027610;28;20176;-42
2021/01/21 02:03:56;;;;;;;6.57;5.47;;;;;;;;;;5027460;28;20483;-43
2021/01/21 02:06:21;;;;;;;5.80;3.83;;;;;;;;;;5007238;28;20068;-40
2021/01/21 02:08:50;;;;;;;6.60;5.70;;;;;;;;;;5027626;28;20511;-41
2021/01/21 02:11:34;;;;;;;7.05;5.45;;;;;;;;;;5025671;28;20095;-44
2021/01/21 02:14:03;;;;;;;10.27;4.20;;;;;;;;;;5026270;28;20033;-41
2021/01/21 02:16:43;;;;;;;9.30;4.70;;;;;;;;;;5028432;28;20041;-44
2021/01/21 02:19:26;;;;;;;6.13;3.95;;;;;;;;;;5018595;28;20049;-39
2021/01/21 02:22:10;;;;;;;10.02;4.63;;;;;;;;;;5027037;28;20041;-40
2021/01/21 02:24:54;;;;;;;11.68;4.75;;;;;;;;;;5020568;28;20417;-41
2021/01/21 02:27:35;;;;;;;7.72;5.38;;;;;;;;;;5025997;28;20468;-41
2021/01/21 02:30:07;;;;;;;9.63;6.70;;;;;;;;;;5025490;28;20029;-42
2021/01/21 02:32:47;;;;;;;7.53;5.88;;;;;;;;;;5019862;28;20037;-40
2021/01/21 02:35:17;;;;;;;13.50;7.40;;;;;;;;;;5024525;28;20129;-42
2021/01/21 02:37:53;;;;;;;5.95;4.10;;;;;;;;;;5027018;28;20087;-40
2021/01/21 02:40:31;;;;;;;9.07;6.30;;;;;;;;;;5025127;28;20088;-44
2021/01/21 02:42:56;;;;;;;5.53;4.30;;;;;;;;;;5026070;28;20375;-40
2021/01/21 02:45:28;;;;;;;6.63;4.65;;;;;;;;;;5025363;28;20057;-41
2021/01/21 02:48:09;;;;;;;6.63;4.10;;;;;;;;;;5026394;28;20132;-39
2021/01/21 02:50:41;;;;;;;5.95;3.92;;;;;;;;;;5019891;28;20033;-40
2021/01/21 02:53:06;;;;;;;6.35;3.00;;;;;;;;;;5020472;28;20101;-41
2021/01/21 02:55:36;;;;;;;5.40;3.85;;;;;;;;;;5026893;28;20124;-43
2021/01/21 02:58:41;;;;;;;7.82;4.82;;;;;;;;;;5024235;28;20406;-40
2021/01/21 03:01:10;;;;;;;8.07;5.75;;;;;;;;;;5010483;28;20053;-39
2021/01/21 03:03:43;;;;;;;10.13;5.85;;;;;;;;;;5019706;28;20029;-39
2021/01/21 03:06:16;;;;;;;7.00;3.78;;;;;;;;;;5023509;28;20069;-39
2021/01/21 03:08:49;;;;;;;5.53;3.60;;;;;;;;;;5027246;28;20052;-45
2021/01/21 03:11:17;;;;;;;12.38;4.15;;;;;;;;;;5024786;28;20119;-39
2021/01/21 03:13:48;;;;;;;8.07;4.28;;;;;;;;;;5026870;28;20037;-40
2021/01/21 03:16:13;;;;;;;6.05;3.53;;;;;;;;;;5025690;28;20017;-40
2021/01/21 03:18:45;;;;;;;6.53;3.70;;;;;;;;;;5026753;28;20025;-43
2021/01/21 03:21:13;;;;;;;8.88;4.07;;;;;;;;;;5023987;28;20026;-40
2021/01/21 03:23:44;;;;;;;4.72;2.85;;;;;;;;;;5023081;28;20021;-42
2021/01/21 03:26:12;;;;;;;4.28;3.15;;;;;;;;;;5023692;28;20033;-39
2021/01/21 03:28:53;;;;;;;3.38;2.30;;;;;;;;;;5007480;28;20033;-40
2021/01/21 03:31:24;;;;;;;4.10;3.55;;;;;;;;;;5024756;28;20037;-41
2021/01/21 03:33:52;;;;;;;5.97;4.10;;;;;;;;;;5026013;28;20073;-40
2021/01/21 03:36:17;;;;;;;4.97;3.90;;;;;;;;;;5024316;28;20037;-41
2021/01/21 03:38:46;;;;;;;6.50;5.78;;;;;;;;;;5023568;28;20029;-39
2021/01/21 03:41:14;;;;;;;12.65;6.72;;;;;;;;;;5021849;28;20068;-42
2021/01/21 03:43:47;;;;;;;10.18;7.30;;;;;;;;;;5026121;28;20032;-40
2021/01/21 03:46:12;;;;;;;11.02;7.43;;;;;;;;;;5019314;28;20135;-41
2021/01/21 03:48:39;;;;;;;7.43;5.35;;;;;;;;;;5025319;28;20445;-43
2021/01/21 03:51:07;;;;;;;6.72;5.47;;;;;;;;;;5024287;28;20494;-40
2021/01/21 03:53:44;;;;;;;5.80;5.03;;;;;;;;;;5021488;28;20025;-40
2021/01/21 03:56:12;;;;;;;5.95;4.30;;;;;;;;;;5022228;28;20523;-41
2021/01/21 03:58:39;;;;;;;4.13;3.30;;;;;;;;;;5025401;28;20029;-40
2021/01/21 04:01:19;;;;;;;4.80;3.55;;;;;;;;;;5023666;28;20041;-45
2021/01/21 04:03:57;;;;;;;6.13;3.85;;;;;;;;;;5019941;28;20026;-39
2021/01/21 04:06:22;;;;;;;7.22;4.03;;;;;;;;;;5024114;28;20041;-40
2021/01/21 04:08:48;;;;;;;5.15;3.80;;;;;;;;;;5024494;28;20045;-39
2021/01/21 04:11:13;;;;;;;4.00;3.10;;;;;;;;;;5022706;28;20380;-41
2021/01/21 04:13:38;;;;;;;3.97;2.45;;;;;;;;;;5025042;28;20021;-41
2021/01/21 04:16:04;;;;;;;4.18;2.15;;;;;;;;;;5022501;28;20033;-39
2021/01/21 04:18:29;;;;;;;4.20;2.38;;;;;;;;;;5022999;28;20030;-39
2021/01/21 04:20:54;;;;;;;3.92;2.78;;;;;;;;;;5024157;28;20029;-41
2021/01/21 04:23:19;;;;;;;3.17;2.55;;;;;;;;;;5019632;28;20506;-41
2021/01/21 04:25:45;;;;;;;6.55;3.00;;;;;;;;;;5025404;28;20100;-43
2021/01/21 04:28:10;;;;;;;4.68;2.35;;;;;;;;;;5022083;28;20041;-40
2021/01/21 04:30:35;;;;;;;4.35;3.05;;;;;;;;;;5024663;28;20022;-43
2021/01/21 04:33:01;;;;;;;2.58;1.98;;;;;;;;;;5022361;28;20135;-44
2021/01/21 04:35:26;;;;;;;3.40;2.28;;;;;;;;;;5023551;28;20116;-41
2021/01/21 04:37:53;;;;;;;4.70;2.78;;;;;;;;;;5023814;28;20122;-41
2021/01/21 04:40:18;;;;;;;2.08;1.25;;;;;;;;;;5022346;28;20383;-40
2021/01/21 04:42:44;;;;;;;3.63;2.53;;;;;;;;;;5024725;28;20105;-40
2021/01/21 04:45:09;;;;;;;3.70;2.42;;;;;;;;;;5021856;28;20073;-40
2021/01/21 04:47:35;;;;;;;2.72;1.70;;;;;;;;;;5024330;28;20030;-45
2021/01/21 04:50:00;;;;;;;5.22;1.92;;;;;;;;;;5022338;28;20428;-40
2021/01/21 04:52:28;;;;;;;4.40;2.60;;;;;;;;;;5022051;28;20034;-39
2021/01/21 04:54:58;;;;;;;7.50;2.13;;;;;;;;;;5021177;28;20031;-39
2021/01/21 04:57:32;;;;;;;11.90;2.92;;;;;;;;;;5015733;28;20124;-40
2021/01/21 04:59:58;;;;;;;3.95;2.83;;;;;;;;;;5022445;28;20026;-39
2021/01/21 05:02:24;;;;;;;3.85;2.35;;;;;;;;;;5023154;28;20033;-42
2021/01/21 05:04:50;;;;;;;6.97;2.50;;;;;;;;;;5023970;28;20031;-39
2021/01/21 05:07:15;;;;;;;2.38;1.42;;;;;;;;;;5022209;28;20806;-43
2021/01/21 05:09:41;;;;;;;3.38;2.28;;;;;;;;;;5024006;28;20044;-41
2021/01/21 05:12:06;;;;;;;5.28;1.95;;;;;;;;;;5021068;28;20032;-43
2021/01/21 05:14:32;;;;;;;3.42;2.53;;;;;;;;;;5024254;28;20044;-43
2021/01/21 05:16:57;;;;;;;5.32;1.83;;;;;;;;;;5023008;28;20021;-45
2021/01/21 05:19:23;;;;;;;2.85;1.55;;;;;;;;;;5022719;28;20365;-40
2021/01/21 05:21:49;;;;;;;5.03;2.30;;;;;;;;;;5025870;28;20044;-42
2021/01/21 05:24:14;;;;;;;4.68;4.18;;;;;;;;;;5017799;28;20034;-39
2021/01/21 05:26:43;;;;;;;5.38;3.58;;;;;;;;;;5024728;28;20033;-40
2021/01/21 05:29:12;;;;;;;2.78;2.15;;;;;;;;;;5021539;28;20113;-39
2021/01/21 05:31:38;;;;;;;3.03;1.83;;;;;;;;;;5024509;28;20025;-40
2021/01/21 05:34:08;;;;;;;10.07;2.50;;;;;;;;;;5021716;28;20541;-41
2021/01/21 05:36:36;;;;;;;3.63;1.77;;;;;;;;;;5016763;28;20037;-40
2021/01/21 05:39:04;;;;;;;3.35;1.45;;;;;;;;;;5016802;28;20029;-42
2021/01/21 05:41:30;;;;;;;3.15;1.63;;;;;;;;;;5023054;28;20164;-39
2021/01/21 05:43:55;;;;;;;1.48;1.10;;;;;;;;;;5026200;28;20033;-39
2021/01/21 05:46:21;;;;;;;2.47;1.00;;;;;;;;;;5018378;28;20056;-42
2021/01/21 05:48:46;;;;;;;3.00;1.45;;;;;;;;;;5023676;28;20024;-40
2021/01/21 05:51:12;;;;;;;3.28;1.77;;;;;;;;;;5020310;28;20038;-42
2021/01/21 05:53:39;;;;;;;2.55;1.17;;;;;;;;;;5019683;28;20026;-41
2021/01/21 05:56:07;;;;;;;2.50;1.40;;;;;;;;;;5020885;28;20040;-44
2021/01/21 05:58:33;;;;;;;2.40;1.48;;;;;;;;;;5016355;28;20030;-39
2021/01/21 06:00:59;;;;;;;1.58;0.88;;;;;;;;;;5022264;28;20075;-39
2021/01/21 06:03:24;;;;;;;2.97;1.70;;;;;;;;;;5019612;28;20045;-39
2021/01/21 06:05:50;;;;;;;4.68;2.00;;;;;;;;;;5021160;28;20179;-40
2021/01/21 06:08:25;;;;;;;1.75;1.05;;;;;;;;;;5017773;28;20025;-41
2021/01/21 06:11:07;;;;;;;2.05;1.02;;;;;;;;;;5022773;28;20040;-40
2021/01/21 06:13:47;;;;;;;2.95;1.05;;;;;;;;;;5016088;28;20033;-43
2021/01/21 06:16:15;;;;;;;1.92;0.88;;;;;;;;;;5021262;28;20038;-39
2021/01/21 06:18:44;;;;;;;3.40;1.45;;;;;;;;;;5023320;28;20025;-39
2021/01/21 06:21:10;;;;;;;2.00;1.35;;;;;;;;;;5020667;28;20080;-40
2021/01/21 06:23:35;;;;;;;6.28;1.80;;;;;;;;;;5019506;28;20025;-40
2021/01/21 06:26:00;;;;;;;3.17;1.30;;;;;;;;;;5021124;28;20661;-44
2021/01/21 06:28:27;;;;;;;2.92;1.35;;;;;;;;;;5021928;28;20452;-38
2021/01/21 06:30:55;;;;;;;11.23;10.07;;;;;;;;;;5022047;28;20369;-39
2021/01/21 06:33:22;;;;;;;3.35;2.25;;;;;;;;;;5020972;28;20376;-38
2021/01/21 06:35:51;;;;;;;2.20;1.33;;;;;;;;;;5017376;28;20438;-39
2021/01/21 06:38:18;;;;;;;4.55;1.90;;;;;;;;;;5017452;28;20021;-40
2021/01/21 06:40:47;;;;;;;2.50;1.08;;;;;;;;;;5022710;28;20018;-38
2021/01/21 06:43:16;;;;;;;3.45;1.80;;;;;;;;;;5023601;28;20498;-39
2021/01/21 06:45:43;;;;;;;5.22;2.20;;;;;;;;;;5026564;28;20053;-39
2021/01/21 06:48:10;;;;;;;7.30;2.50;;;;;;;;;;5020398;28;20133;-38
2021/01/21 06:50:36;;;;;;;2.10;0.98;;;;;;;;;;5030307;28;20036;-41
2021/01/21 06:53:05;;;;;;;4.38;2.50;;;;;;;;;;5018574;28;20025;-42
2021/01/21 06:55:32;;;;;;;2.50;0.65;;;;;;;;;;5023096;28;20041;-41
2021/01/21 06:57:57;;;;;;;2.75;1.42;;;;;;;;;;5021154;28;20375;-39
2021/01/21 07:00:35;;;;;;;3.65;2.35;;;;;;;;;;5025023;28;20030;-41
2021/01/21 07:03:00;;;;;;;3.38;1.13;;;;;;;;;;5020237;28;20097;-43
2021/01/21 07:05:27;;;;;;;2.17;0.98;;;;;;;;;;5025361;28;20117;-38
2021/01/21 07:07:52;;;;;;;17.98;4.53;;;;;;;;;;5025384;28;20025;-37
2021/01/21 07:10:19;;;;;;;8.73;4.60;;;;;;;;;;5024266;28;20419;-42
2021/01/21 07:12:45;;;;;;;12.07;3.22;;;;;;;;;;5026123;28;20033;-39
2021/01/21 07:15:12;;;;;;;5.05;2.22;;;;;;;;;;5023196;28;20030;-41
2021/01/21 07:17:40;;;;;;;3.97;2.42;;;;;;;;;;5026120;28;20021;-39
2021/01/21 07:20:06;;;;;;;5.80;1.65;;;;;;;;;;5019843;28;20408;-38
2021/01/21 07:22:31;;;;;;;5.03;1.73;;;;;;;;;;5023615;28;20038;-39
2021/01/21 07:24:58;;;;;;;5.40;2.67;;;;;;;;;;5033516;28;20028;-39
2021/01/21 07:27:24;;;;;;;3.15;1.50;;;;;;;;;;5029081;28;20025;-39
2021/01/21 07:29:49;;;;;;;2.05;0.98;;;;;;;;;;5028374;28;20053;-44
2021/01/21 07:32:25;;;;;;;6.80;1.67;;;;;;;;;;5010597;28;20076;-50
2021/01/21 07:34:50;;;;;;;3.20;1.15;;;;;;;;;;5025520;28;20029;-42
2021/01/21 07:37:26;;;;;;;2.80;2.03;;;;;;;;;;5026082;28;20802;-42
2021/01/21 07:40:02;;;;;;;4.03;2.15;;;;;;;;;;5029146;28;20021;-41
2021/01/21 07:42:33;;;;;;;6.68;2.63;;;;;;;;;;5029819;28;20120;-42
2021/01/21 07:45:00;;;;;;;7.47;3.97;;;;;;;;;;5029519;28;20472;-43
2021/01/21 07:47:39;;;;;;;10.85;4.18;;;;;;;;;;5022646;28;20472;-43
2021/01/21 07:50:13;;;;;;;10.80;6.15;;;;;;;;;;5012739;28;20029;-43
2021/01/21 07:52:42;;;;;;;16.42;10.90;;;;;;;;;;5028158;28;20037;-45
2021/01/21 07:55:07;;;;;;;24.02;12.98;;;;;;;;;;5025576;28;20545;-47
2021/01/21 07:57:33;;;;;;;32.38;13.27;;;;;;;;;;5027494;28;20022;-52
2021/01/21 07:59:59;;;;;;;33.10;11.90;;;;;;;;;;5026971;28;20032;-51
2021/01/21 08:02:24;;;;;;;18.80;10.45;;;;;;;;;;5026602;28;20025;-47
2021/01/21 08:04:56;;;;;;;13.82;7.95;;;;;;;;;;5027207;28;20029;-53
2021/01/21 08:07:22;;;;;;;15.20;5.97;;;;;;;;;;5027222;28;20041;-52
2021/01/21 08:10:04;;;;;;;13.15;4.78;;;;;;;;;;5025995;28;20383;-51
2021/01/21 08:12:29;;;;;;;18.13;4.80;;;;;;;;;;5026976;28;20368;-48
2021/01/21 08:14:54;;;;;;;4.38;2.97;;;;;;;;;;5026871;28;20028;-52
2021/01/21 08:17:20;;;;;;;6.45;4.22;;;;;;;;;;5026242;28;20117;-46
2021/01/21 08:19:45;;;;;;;16.20;5.03;;;;;;;;;;5027483;28;20053;-47
2021/01/21 08:22:10;;;;;;;12.75;7.07;;;;;;;;;;5025120;28;20033;-50
2021/01/21 08:24:55;;;;;;;15.25;7.00;;;;;;;;;;5019756;28;20025;-46
2021/01/21 08:27:21;;;;;;;13.48;7.15;;;;;;;;;;5024314;28;20049;-46
2021/01/21 08:29:46;;;;;;;19.50;10.02;;;;;;;;;;5025626;28;20040;-49
2021/01/21 08:32:11;;;;;;;13.90;10.38;;;;;;;;;;5023151;28;20030;-46
2021/01/21 08:34:37;;;;;;;15.48;9.35;;;;;;;;;;5025468;28;20118;-47
2021/01/21 08:37:03;;;;;;;13.85;8.43;;;;;;;;;;5023437;28;20055;-48
2021/01/21 08:39:28;;;;;;;13.45;9.43;;;;;;;;;;5024905;28;20057;-45
2021/01/21 08:41:54;;;;;;;29.17;16.17;;;;;;;;;;5024881;28;20618;-45
2021/01/21 08:44:19;;;;;;;30.60;13.45;;;;;;;;;;5023684;28;20049;-46
2021/01/21 08:47:00;;;;;;;25.90;11.80;;;;;;;;;;5021398;28;20099;-51
2021/01/21 08:49:26;;;;;;;12.32;5.70;;;;;;;;;;5018606;28;20029;-45
2021/01/21 08:52:04;;;;;;;35.00;6.82;;;;;;;;;;5017882;28;20044;-51
2021/01/21 08:54:30;;;;;;;24.17;9.30;;;;;;;;;;5018676;28;20039;-44
2021/01/21 08:57:08;;;;;;;14.52;8.43;;;;;;;;;;5016750;28;20030;-47
2021/01/21 08:59:34;;;;;;;13.75;8.25;;;;;;;;;;5016487;28;20029;-50
2021/01/21 09:02:00;;;;;;;15.55;7.10;;;;;;;;;;5004489;28;20038;-50
2021/01/21 09:04:26;;;;;;;17.92;4.45;;;;;;;;;;5018466;28;20022;-48
2021/01/21 09:06:55;;;;;;;13.27;10.70;;;;;;;;;;5017311;28;20042;-51
2021/01/21 09:09:24;;;;;;;15.68;6.07;;;;;;;;;;5018212;28;20021;-59
2021/01/21 09:11:49;;;;;;;14.23;8.10;;;;;;;;;;5016490;28;20029;-46
2021/01/21 09:14:15;;;;;;;18.33;11.20;;;;;;;;;;5017655;28;20083;-50
2021/01/21 09:16:51;;;;;;;15.55;11.63;;;;;;;;;;5016383;28;20034;-50
2021/01/21 09:19:36;;;;;;;21.40;14.40;;;;;;;;;;5017467;28;20053;-52
2021/01/21 09:22:03;;;;;;;24.75;10.52;;;;;;;;;;5016893;28;20527;-54
2021/01/21 09:24:29;;;;;;;25.65;11.95;;;;;;;;;;5018290;28;20112;-50
2021/01/21 09:27:10;;;;;;;14.15;5.85;;;;;;;;;;5016156;28;20113;-47
2021/01/21 09:29:49;;;;;;;8.15;6.07;;;;;;;;;;5019065;28;20037;-48
2021/01/21 09:32:15;;;;;;;8.45;5.82;;;;;;;;;;5021115;28;20045;-50
2021/01/21 09:34:50;;;;;;;8.45;5.70;;;;;;;;;;5017571;28;20025;-53
2021/01/21 09:37:16;;;;;;;11.48;7.10;;;;;;;;;;5017546;28;20045;-54
2021/01/21 09:39:41;;;;;;;18.05;6.30;;;;;;;;;;5016555;28;20029;-47
2021/01/21 09:42:06;;;;;;;11.52;7.28;;;;;;;;;;5017731;28;20136;-46
2021/01/21 09:44:32;;;;;;;21.05;8.48;;;;;;;;;;5018401;28;20049;-51
2021/01/21 09:46:57;;;;;;;15.85;4.80;;;;;;;;;;5016232;28;20107;-49
2021/01/21 09:49:22;;;;;;;14.18;6.05;;;;;;;;;;5017016;28;20029;-52
2021/01/21 09:51:47;;;;;;;10.98;3.78;;;;;;;;;;5020776;28;20403;-50
2021/01/21 09:54:13;;;;;;;7.93;4.15;;;;;;;;;;5021863;28;20174;-49
2021/01/21 09:56:38;;;;;;;9.48;3.25;;;;;;;;;;5015014;28;20436;-47
2021/01/21 09:59:03;;;;;;;9.05;4.72;;;;;;;;;;5017107;28;20033;-51
2021/01/21 10:01:28;;;;;;;26.55;9.40;;;;;;;;;;5018319;28;20168;-49
2021/01/21 10:03:54;;;;;;;16.33;5.20;;;;;;;;;;5016006;28;20388;-51
2021/01/21 10:06:19;;;;;;;15.05;7.75;;;;;;;;;;5017616;28;20045;-48
2021/01/21 10:08:44;;;;;;;11.35;4.75;;;;;;;;;;5016015;28;20483;-48
2021/01/21 10:11:10;;;;;;;14.48;6.30;;;;;;;;;;5017281;28;20033;-47
2021/01/21 10:13:35;;;;;;;20.05;6.00;;;;;;;;;;5017650;28;20028;-50
2021/01/21 10:16:00;;;;;;;7.45;4.00;;;;;;;;;;5016269;28;20464;-59
2021/01/21 10:18:25;;;;;;;13.40;7.63;;;;;;;;;;5020507;28;20029;-52
2021/01/21 10:20:51;;;;;;;23.30;7.32;;;;;;;;;;5023742;28;20425;-51
2021/01/21 10:23:16;;;;;;;9.57;4.60;;;;;;;;;;5022382;28;20018;-52
2021/01/21 10:25:41;;;;;;;13.73;5.60;;;;;;;;;;5003083;28;20037;-49
2021/01/21 10:28:07;;;;;;;20.83;6.88;;;;;;;;;;5020689;28;20402;-49
2021/01/21 10:30:32;;;;;;;18.08;5.47;;;;;;;;;;5021310;28;20076;-50
2021/01/21 10:32:57;;;;;;;11.35;3.05;;;;;;;;;;5019187;28;20081;-47
2021/01/21 10:35:22;;;;;;;9.15;4.25;;;;;;;;;;5020205;28;20041;-49
2021/01/21 10:37:48;;;;;;;12.50;4.22;;;;;;;;;;5019480;28;20026;-47
2021/01/21 10:40:14;;;;;;;4.93;2.55;;;;;;;;;;5020820;28;20032;-45
2021/01/21 10:42:39;;;;;;;7.28;4.35;;;;;;;;;;5020743;28;20075;-46
2021/01/21 10:45:04;;;;;;;6.60;4.85;;;;;;;;;;5019572;28;20108;-45
2021/01/21 10:47:30;;;;;;;11.40;4.70;;;;;;;;;;5019045;28;20500;-52
2021/01/21 10:49:55;;;;;;;12.88;5.95;;;;;;;;;;5019902;28;20014;-50
2021/01/21 10:52:20;;;;;;;6.95;4.38;;;;;;;;;;5020298;28;20058;-48
2021/01/21 10:54:46;;;;;;;12.23;7.97;;;;;;;;;;5019505;28;20049;-53
2021/01/21 10:57:11;;;;;;;10.55;8.93;;;;;;;;;;5019862;28;20029;-46
2021/01/21 10:59:36;;;;;;;14.15;11.50;;;;;;;;;;5018669;28;20460;-49
2021/01/21 11:02:01;;;;;;;13.40;4.85;;;;;;;;;;5020352;28;20043;-60
2021/01/21 11:04:28;;;;;;;8.95;5.55;;;;;;;;;;5020886;28;20026;-46
2021/01/21 11:06:53;;;;;;;8.63;4.18;;;;;;;;;;5018685;28;20037;-45
2021/01/21 11:09:25;;;;;;;12.20;4.47;;;;;;;;;;5019434;28;20025;-53
2021/01/21 11:11:51;;;;;;;10.52;6.15;;;;;;;;;;5019064;28;20427;-45
2021/01/21 11:14:16;;;;;;;16.50;4.95;;;;;;;;;;5020530;28;20037;-51
2021/01/21 11:16:42;;;;;;;10.48;4.20;;;;;;;;;;5019859;28;20030;-49
2021/01/21 11:19:07;;;;;;;4.32;1.77;;;;;;;;;;5019333;28;20427;-53
2021/01/21 11:21:33;;;;;;;7.10;1.50;;;;;;;;;;5018517;28;20045;-50
2021/01/21 11:23:58;;;;;;;5.95;2.33;;;;;;;;;;5019434;28;20033;-50
2021/01/21 11:26:23;;;;;;;10.52;2.30;;;;;;;;;;5026724;28;20044;-50
2021/01/21 11:28:49;;;;;;;5.70;2.17;;;;;;;;;;5039244;28;20013;-53
2021/01/21 11:31:15;;;;;;;5.70;3.40;;;;;;;;;;5031515;28;20116;-51
2021/01/21 11:33:40;;;;;;;13.52;4.47;;;;;;;;;;5023805;28;20095;-53
2021/01/21 11:36:06;;;;;;;2.53;1.48;;;;;;;;;;5029715;28;20041;-45
2021/01/21 11:38:31;;;;;;;8.95;1.63;;;;;;;;;;5034740;28;20018;-52
2021/01/21 11:40:56;;;;;;;3.30;0.90;;;;;;;;;;5037478;28;20443;-52
2021/01/21 11:43:22;;;;;;;2.63;1.38;;;;;;;;;;5020465;28;20302;-50
2021/01/21 11:45:47;;;;;;;18.38;3.05;;;;;;;;;;5021157;28;20060;-49
2021/01/21 11:48:13;;;;;;;10.70;1.95;;;;;;;;;;5029246;28;20031;-51
2021/01/21 11:50:39;;;;;;;2.58;1.05;;;;;;;;;;5017032;28;20062;-51
2021/01/21 11:53:05;;;;;;;11.30;1.77;;;;;;;;;;5020216;28;20069;-46
2021/01/21 11:55:31;;;;;;;6.47;1.27;;;;;;;;;;5025519;28;20100;-51
2021/01/21 11:57:56;;;;;;;2.20;1.83;;;;;;;;;;5040222;28;20020;-48
2021/01/21 12:00:22;;;;;;;6.60;1.75;;;;;;;;;;5037796;28;20120;-54
2021/01/21 12:02:47;;;;;;;2.63;1.50;;;;;;;;;;5036733;28;20021;-53
2021/01/21 12:05:12;;;;;;;2.25;1.42;;;;;;;;;;5021491;28;20035;-56
2021/01/21 12:07:38;;;;;;;11.20;1.02;;;;;;;;;;5031757;28;20356;-55
2021/01/21 12:10:05;;;;;;;4.07;1.52;;;;;;;;;;5035904;28;20431;-54
2021/01/21 12:12:30;;;;;;;6.82;1.60;;;;;;;;;;5034059;28;20026;-53
2021/01/21 12:14:55;;;;;;;2.50;1.52;;;;;;;;;;5038037;28;20082;-55
2021/01/21 12:17:20;;;;;;;8.27;1.58;;;;;;;;;;5031126;28;20368;-49
2021/01/21 12:19:46;;;;;;;10.75;2.33;;;;;;;;;;5037522;28;20386;-53
2021/01/21 12:22:12;;;;;;;5.68;4.47;;;;;;;;;;5035412;28;20029;-51
2021/01/21 12:24:37;;;;;;;4.88;2.58;;;;;;;;;;5033355;28;20573;-49
2021/01/21 12:27:02;;;;;;;21.67;9.05;;;;;;;;;;5029534;28;20037;-52
2021/01/21 12:29:28;;;;;;;3.78;1.85;;;;;;;;;;5024242;28;20034;-53
2021/01/21 12:31:53;;;;;;;4.53;1.27;;;;;;;;;;5032762;28;20090;-54
2021/01/21 12:34:18;;;;;;;2.10;0.98;;;;;;;;;;5024820;28;20038;-49
2021/01/21 12:36:44;;;;;;;2.55;1.15;;;;;;;;;;5025406;28;20502;-51
2021/01/21 12:39:09;;;;;;;3.55;1.10;;;;;;;;;;5022919;28;20025;-55
2021/01/21 12:41:34;;;;;;;8.95;1.10;;;;;;;;;;5023233;28;20036;-55
2021/01/21 12:44:00;;;;;;;1.65;1.00;;;;;;;;;;5024645;28;20079;-51
2021/01/21 12:46:28;;;;;;;5.25;1.33;;;;;;;;;;5024150;28;20033;-58
2021/01/21 12:48:56;;;;;;;2.50;1.55;;;;;;;;;;5022628;28;20021;-53
2021/01/21 12:51:22;;;;;;;4.65;1.88;;;;;;;;;;5022012;28;20041;-50
2021/01/21 12:53:48;;;;;;;12.93;3.70;;;;;;;;;;5024201;28;20526;-52
2021/01/21 12:56:13;;;;;;;7.47;1.38;;;;;;;;;;5025490;28;20076;-49
2021/01/21 12:58:38;;;;;;;5.97;2.25;;;;;;;;;;5024960;28;20032;-49
2021/01/21 13:01:04;;;;;;;5.38;1.80;;;;;;;;;;5025080;28;20771;-58
2021/01/21 13:03:29;;;;;;;1.52;1.05;;;;;;;;;;5025022;28;20024;-54
2021/01/21 13:05:54;;;;;;;5.85;2.28;;;;;;;;;;5023229;28;20037;-53
2021/01/21 13:08:20;;;;;;;3.10;1.30;;;;;;;;;;5023832;28;20051;-51
2021/01/21 13:10:45;;;;;;;4.72;1.25;;;;;;;;;;5023009;28;20475;-57
2021/01/21 13:13:10;;;;;;;2.28;1.08;;;;;;;;;;5023598;28;20025;-55
2021/01/21 13:15:36;;;;;;;1.17;0.80;;;;;;;;;;5016223;28;20486;-54
2021/01/21 13:18:01;;;;;;;1.13;0.60;;;;;;;;;;5032577;28;20029;-60
2021/01/21 13:20:26;;;;;;;1.75;0.63;;;;;;;;;;5026715;28;20071;-57
2021/01/21 13:22:52;;;;;;;3.00;1.27;;;;;;;;;;5015140;28;20708;-50
2021/01/21 13:25:17;;;;;;;0.50;0.35;;;;;;;;;;5014763;28;20475;-54
2021/01/21 13:27:42;;;;;;;5.15;1.20;;;;;;;;;;5018249;28;20048;-56
2021/01/21 13:30:08;;;;;;;11.32;1.63;;;;;;;;;;5029051;28;20099;-54
2021/01/21 13:32:33;;;;;;;1.90;1.15;;;;;;;;;;5027389;28;20456;-58
2021/01/21 13:34:58;;;;;;;0.85;0.75;;;;;;;;;;5028408;28;20517;-54
2021/01/21 13:37:24;;;;;;;7.40;1.08;;;;;;;;;;5014703;28;20030;-54
2021/01/21 13:39:49;;;;;;;2.17;1.60;;;;;;;;;;5016364;28;20443;-55
2021/01/21 13:42:15;;;;;;;1.00;0.68;;;;;;;;;;5014993;28;20037;-53
2021/01/21 13:44:40;;;;;;;1.58;0.82;;;;;;;;;;5013848;28;20058;-56
2021/01/21 13:47:06;;;;;;;6.03;1.40;;;;;;;;;;5015390;28;20111;-58
2021/01/21 13:49:31;;;;;;;10.15;2.45;;;;;;;;;;5017458;28;20065;-59
2021/01/21 13:51:57;;;;;;;5.50;3.45;;;;;;;;;;5017639;28;20095;-56
2021/01/21 13:54:22;;;;;;;7.32;4.63;;;;;;;;;;5018438;28;20041;-52
2021/01/21 13:56:47;;;;;;;7.43;4.80;;;;;;;;;;5021654;28;20384;-52
2021/01/21 13:59:13;;;;;;;7.85;3.08;;;;;;;;;;5018394;28;20034;-57
2021/01/21 14:01:38;;;;;;;3.65;1.98;;;;;;;;;;5016421;28;20030;-60
2021/01/21 14:04:06;;;;;;;7.65;4.00;;;;;;;;;;5019159;28;20084;-60
2021/01/21 14:06:32;;;;;;;2.67;1.67;;;;;;;;;;5016506;28;20037;-64
2021/01/21 14:09:00;;;;;;;6.18;0.93;;;;;;;;;;5018674;28;20022;-64
2021/01/21 14:11:25;;;;;;;9.48;0.80;;;;;;;;;;5018620;28;20121;-64
2021/01/21 14:13:51;;;;;;;5.57;2.70;;;;;;;;;;5016453;28;20101;-63
2021/01/21 14:16:16;;;;;;;5.50;2.97;;;;;;;;;;5017596;28;20706;-64
2021/01/21 14:18:41;;;;;;;21.58;4.82;;;;;;;;;;5019918;28;20352;-62
2021/01/21 14:21:07;;;;;;;3.85;2.60;;;;;;;;;;5018690;28;20564;-64
2021/01/21 14:23:32;;;;;;;4.22;2.78;;;;;;;;;;5018167;28;20030;-64
2021/01/21 14:25:58;;;;;;;6.35;3.17;;;;;;;;;;5007444;28;20040;-62
2021/01/21 14:28:23;;;;;;;11.95;3.40;;;;;;;;;;5021124;28;20057;-63
2021/01/21 14:30:48;;;;;;;5.10;3.65;;;;;;;;;;5019330;28;20105;-63
2021/01/21 14:33:14;;;;;;;3.47;2.60;;;;;;;;;;5024270;28;20110;-63
2021/01/21 14:35:39;;;;;;;5.63;3.80;;;;;;;;;;5018956;28;20473;-62
2021/01/21 14:38:05;;;;;;;4.57;2.75;;;;;;;;;;5020221;28;20052;-62
2021/01/21 14:40:31;;;;;;;6.30;1.30;;;;;;;;;;5021322;28;20065;-63